sensor_id;sensor_type;location;lat;lon;timestamp;P1;durP1;ratioP1;P2;durP2;ratioP2
17618;SDS011;8928;51.678;6.074;2023-09-19T00:01:45;16.77;;;2.80;;
17618;SDS011;8928;51.678;6.074;2023-09-19T00:04:33;18.03;;;2.57;;
17618;SDS011;8928;51.678;6.074;2023-09-19T00:07:21;18.97;;;2.77;;
17618;SDS011;8928;51.678;6.074;2023-09-19T00:10:08;21.00;;;2.77;;
17618;SDS011;8928;51.678;6.074;2023-09-19T00:12:56;16.67;;;2.33;;
17618;SDS011;8928;51.678;6.074;2023-09-19T00:15:45;19.50;;;2.70;;
17618;SDS011;8928;51.678;6.074;2023-09-19T00:18:34;21.27;;;3.47;;
17618;SDS011;8928;51.678;6.074;2023-09-19T00:21:23;15.87;;;2.60;;
17618;SDS011;8928;51.678;6.074;2023-09-19T00:24:10;27.00;;;2.83;;
17618;SDS011;8928;51.678;6.074;2023-09-19T00:26:57;18.03;;;2.70;;
17618;SDS011;8928;51.678;6.074;2023-09-19T00:29:44;16.30;;;2.40;;
17618;SDS011;8928;51.678;6.074;2023-09-19T00:32:32;15.27;;;2.43;;
17618;SDS011;8928;51.678;6.074;2023-09-19T00:35:19;17.17;;;2.27;;
17618;SDS011;8928;51.678;6.074;2023-09-19T00:38:07;18.23;;;2.60;;
17618;SDS011;8928;51.678;6.074;2023-09-19T00:40:54;23.33;;;3.13;;
17618;SDS011;8928;51.678;6.074;2023-09-19T00:43:42;16.20;;;2.60;;
17618;SDS011;8928;51.678;6.074;2023-09-19T00:46:29;16.80;;;2.40;;
17618;SDS011;8928;51.678;6.074;2023-09-19T00:49:17;20.43;;;2.80;;
17618;SDS011;8928;51.678;6.074;2023-09-19T00:52:07;18.27;;;2.70;;
17618;SDS011;8928;51.678;6.074;2023-09-19T00:54:57;16.83;;;2.60;;
17618;SDS011;8928;51.678;6.074;2023-09-19T00:57:45;16.93;;;2.60;;
17618;SDS011;8928;51.678;6.074;2023-09-19T01:00:35;19.10;;;2.77;;
17618;SDS011;8928;51.678;6.074;2023-09-19T01:03:22;18.73;;;2.70;;
17618;SDS011;8928;51.678;6.074;2023-09-19T01:06:09;15.67;;;3.03;;
17618;SDS011;8928;51.678;6.074;2023-09-19T01:08:57;20.00;;;3.17;;
17618;SDS011;8928;51.678;6.074;2023-09-19T01:11:47;19.30;;;2.57;;
17618;SDS011;8928;51.678;6.074;2023-09-19T01:14:38;17.07;;;2.67;;
17618;SDS011;8928;51.678;6.074;2023-09-19T01:17:34;21.47;;;3.00;;
17618;SDS011;8928;51.678;6.074;2023-09-19T01:20:33;21.97;;;3.00;;
17618;SDS011;8928;51.678;6.074;2023-09-19T01:23:29;18.40;;;2.47;;
17618;SDS011;8928;51.678;6.074;2023-09-19T01:26:30;18.57;;;2.87;;
17618;SDS011;8928;51.678;6.074;2023-09-19T01:29:34;16.63;;;2.67;;
17618;SDS011;8928;51.678;6.074;2023-09-19T01:32:27;27.80;;;3.27;;
17618;SDS011;8928;51.678;6.074;2023-09-19T01:35:15;16.73;;;2.90;;
17618;SDS011;8928;51.678;6.074;2023-09-19T01:38:03;18.10;;;2.67;;
17618;SDS011;8928;51.678;6.074;2023-09-19T01:40:54;18.37;;;2.70;;
17618;SDS011;8928;51.678;6.074;2023-09-19T01:43:49;17.60;;;2.77;;
17618;SDS011;8928;51.678;6.074;2023-09-19T01:46:37;19.03;;;2.40;;
17618;SDS011;8928;51.678;6.074;2023-09-19T01:49:31;18.47;;;2.80;;
17618;SDS011;8928;51.678;6.074;2023-09-19T01:52:23;16.23;;;2.63;;
17618;SDS011;8928;51.678;6.074;2023-09-19T01:55:16;26.00;;;2.90;;
17618;SDS011;8928;51.678;6.074;2023-09-19T01:58:06;15.50;;;2.20;;
17618;SDS011;8928;51.678;6.074;2023-09-19T02:00:56;20.13;;;2.77;;
17618;SDS011;8928;51.678;6.074;2023-09-19T02:03:44;19.87;;;2.60;;
17618;SDS011;8928;51.678;6.074;2023-09-19T02:06:35;16.47;;;2.57;;
17618;SDS011;8928;51.678;6.074;2023-09-19T02:09:23;17.07;;;2.40;;
17618;SDS011;8928;51.678;6.074;2023-09-19T02:12:10;16.03;;;2.40;;
17618;SDS011;8928;51.678;6.074;2023-09-19T02:14:58;13.83;;;2.47;;
17618;SDS011;8928;51.678;6.074;2023-09-19T02:17:45;15.20;;;2.40;;
17618;SDS011;8928;51.678;6.074;2023-09-19T02:20:32;16.53;;;2.40;;
17618;SDS011;8928;51.678;6.074;2023-09-19T02:23:21;16.20;;;2.53;;
17618;SDS011;8928;51.678;6.074;2023-09-19T02:26:08;24.90;;;2.93;;
17618;SDS011;8928;51.678;6.074;2023-09-19T02:28:57;18.33;;;2.33;;
17618;SDS011;8928;51.678;6.074;2023-09-19T02:31:44;15.33;;;2.30;;
17618;SDS011;8928;51.678;6.074;2023-09-19T02:34:31;15.60;;;2.23;;
17618;SDS011;8928;51.678;6.074;2023-09-19T02:37:21;15.33;;;2.60;;
17618;SDS011;8928;51.678;6.074;2023-09-19T02:40:10;15.47;;;2.57;;
17618;SDS011;8928;51.678;6.074;2023-09-19T02:43:04;15.57;;;2.00;;
17618;SDS011;8928;51.678;6.074;2023-09-19T02:45:52;18.57;;;2.67;;
17618;SDS011;8928;51.678;6.074;2023-09-19T02:48:39;17.50;;;2.57;;
17618;SDS011;8928;51.678;6.074;2023-09-19T02:51:27;16.20;;;2.17;;
17618;SDS011;8928;51.678;6.074;2023-09-19T02:54:14;18.67;;;2.10;;
17618;SDS011;8928;51.678;6.074;2023-09-19T02:57:04;15.97;;;2.27;;
17618;SDS011;8928;51.678;6.074;2023-09-19T02:59:53;17.40;;;2.00;;
17618;SDS011;8928;51.678;6.074;2023-09-19T03:02:40;14.10;;;1.97;;
17618;SDS011;8928;51.678;6.074;2023-09-19T03:05:28;13.17;;;2.27;;
17618;SDS011;8928;51.678;6.074;2023-09-19T03:08:16;12.57;;;2.03;;
17618;SDS011;8928;51.678;6.074;2023-09-19T03:11:03;14.03;;;2.00;;
17618;SDS011;8928;51.678;6.074;2023-09-19T03:13:53;11.13;;;2.07;;
17618;SDS011;8928;51.678;6.074;2023-09-19T03:16:40;15.00;;;2.43;;
17618;SDS011;8928;51.678;6.074;2023-09-19T03:19:29;14.53;;;2.07;;
17618;SDS011;8928;51.678;6.074;2023-09-19T03:22:18;14.90;;;1.83;;
17618;SDS011;8928;51.678;6.074;2023-09-19T03:25:07;19.23;;;2.60;;
17618;SDS011;8928;51.678;6.074;2023-09-19T03:27:56;16.63;;;2.03;;
17618;SDS011;8928;51.678;6.074;2023-09-19T03:30:45;16.20;;;2.13;;
17618;SDS011;8928;51.678;6.074;2023-09-19T03:33:32;10.33;;;2.10;;
17618;SDS011;8928;51.678;6.074;2023-09-19T03:36:19;15.23;;;2.30;;
17618;SDS011;8928;51.678;6.074;2023-09-19T03:39:06;11.77;;;2.10;;
17618;SDS011;8928;51.678;6.074;2023-09-19T03:41:53;13.23;;;2.40;;
17618;SDS011;8928;51.678;6.074;2023-09-19T03:44:40;20.53;;;2.23;;
17618;SDS011;8928;51.678;6.074;2023-09-19T03:47:29;15.77;;;2.27;;
17618;SDS011;8928;51.678;6.074;2023-09-19T03:50:16;13.50;;;1.90;;
17618;SDS011;8928;51.678;6.074;2023-09-19T03:53:03;15.53;;;2.27;;
17618;SDS011;8928;51.678;6.074;2023-09-19T03:55:52;14.10;;;2.07;;
17618;SDS011;8928;51.678;6.074;2023-09-19T03:58:39;13.00;;;1.90;;
17618;SDS011;8928;51.678;6.074;2023-09-19T04:01:26;13.30;;;2.37;;
17618;SDS011;8928;51.678;6.074;2023-09-19T04:04:17;15.00;;;2.40;;
17618;SDS011;8928;51.678;6.074;2023-09-19T04:07:04;17.37;;;2.47;;
17618;SDS011;8928;51.678;6.074;2023-09-19T04:09:51;21.40;;;2.37;;
17618;SDS011;8928;51.678;6.074;2023-09-19T04:12:39;14.73;;;1.73;;
17618;SDS011;8928;51.678;6.074;2023-09-19T04:15:26;13.60;;;2.23;;
17618;SDS011;8928;51.678;6.074;2023-09-19T04:18:13;14.03;;;2.00;;
17618;SDS011;8928;51.678;6.074;2023-09-19T04:21:01;13.20;;;2.43;;
17618;SDS011;8928;51.678;6.074;2023-09-19T04:23:49;17.17;;;2.20;;
17618;SDS011;8928;51.678;6.074;2023-09-19T04:26:36;12.60;;;2.07;;
17618;SDS011;8928;51.678;6.074;2023-09-19T04:29:23;18.13;;;2.27;;
17618;SDS011;8928;51.678;6.074;2023-09-19T04:32:11;15.53;;;1.87;;
17618;SDS011;8928;51.678;6.074;2023-09-19T04:34:58;16.17;;;2.00;;
17618;SDS011;8928;51.678;6.074;2023-09-19T04:37:50;10.90;;;2.23;;
17618;SDS011;8928;51.678;6.074;2023-09-19T04:40:38;14.47;;;1.97;;
17618;SDS011;8928;51.678;6.074;2023-09-19T04:43:25;15.97;;;2.30;;
17618;SDS011;8928;51.678;6.074;2023-09-19T04:46:14;17.80;;;2.27;;
17618;SDS011;8928;51.678;6.074;2023-09-19T04:49:03;15.77;;;2.30;;
17618;SDS011;8928;51.678;6.074;2023-09-19T04:51:50;13.73;;;2.40;;
17618;SDS011;8928;51.678;6.074;2023-09-19T04:54:38;11.63;;;2.07;;
17618;SDS011;8928;51.678;6.074;2023-09-19T04:57:26;15.90;;;2.10;;
17618;SDS011;8928;51.678;6.074;2023-09-19T05:00:14;9.00;;;2.10;;
17618;SDS011;8928;51.678;6.074;2023-09-19T05:03:04;12.20;;;1.80;;
17618;SDS011;8928;51.678;6.074;2023-09-19T05:05:54;12.37;;;1.90;;
17618;SDS011;8928;51.678;6.074;2023-09-19T05:08:41;17.33;;;2.17;;
17618;SDS011;8928;51.678;6.074;2023-09-19T05:11:29;12.07;;;2.20;;
17618;SDS011;8928;51.678;6.074;2023-09-19T05:14:16;17.23;;;2.03;;
17618;SDS011;8928;51.678;6.074;2023-09-19T05:17:03;14.07;;;2.20;;
17618;SDS011;8928;51.678;6.074;2023-09-19T05:19:50;13.40;;;2.10;;
17618;SDS011;8928;51.678;6.074;2023-09-19T05:22:38;13.93;;;2.20;;
17618;SDS011;8928;51.678;6.074;2023-09-19T05:25:26;17.23;;;2.30;;
17618;SDS011;8928;51.678;6.074;2023-09-19T05:28:16;13.87;;;2.00;;
17618;SDS011;8928;51.678;6.074;2023-09-19T05:31:03;16.27;;;2.30;;
17618;SDS011;8928;51.678;6.074;2023-09-19T05:33:50;14.17;;;2.30;;
17618;SDS011;8928;51.678;6.074;2023-09-19T05:36:37;14.83;;;2.23;;
17618;SDS011;8928;51.678;6.074;2023-09-19T05:39:25;12.83;;;1.80;;
17618;SDS011;8928;51.678;6.074;2023-09-19T05:42:13;12.40;;;2.37;;
17618;SDS011;8928;51.678;6.074;2023-09-19T05:45:01;18.63;;;2.73;;
17618;SDS011;8928;51.678;6.074;2023-09-19T05:47:48;19.80;;;2.43;;
17618;SDS011;8928;51.678;6.074;2023-09-19T05:50:36;14.97;;;2.10;;
17618;SDS011;8928;51.678;6.074;2023-09-19T05:53:23;17.93;;;2.20;;
17618;SDS011;8928;51.678;6.074;2023-09-19T05:56:10;19.47;;;2.47;;
17618;SDS011;8928;51.678;6.074;2023-09-19T05:58:59;14.00;;;2.07;;
17618;SDS011;8928;51.678;6.074;2023-09-19T06:01:47;11.30;;;2.07;;
17618;SDS011;8928;51.678;6.074;2023-09-19T06:04:34;11.00;;;1.93;;
17618;SDS011;8928;51.678;6.074;2023-09-19T06:07:21;12.80;;;2.20;;
17618;SDS011;8928;51.678;6.074;2023-09-19T06:10:11;14.83;;;1.80;;
17618;SDS011;8928;51.678;6.074;2023-09-19T06:12:58;12.47;;;2.20;;
17618;SDS011;8928;51.678;6.074;2023-09-19T06:15:45;12.43;;;2.10;;
17618;SDS011;8928;51.678;6.074;2023-09-19T06:18:34;13.93;;;1.90;;
17618;SDS011;8928;51.678;6.074;2023-09-19T06:21:21;9.77;;;1.87;;
17618;SDS011;8928;51.678;6.074;2023-09-19T06:24:08;14.83;;;2.20;;
17618;SDS011;8928;51.678;6.074;2023-09-19T06:26:56;8.10;;;1.80;;
17618;SDS011;8928;51.678;6.074;2023-09-19T06:29:47;10.37;;;1.80;;
17618;SDS011;8928;51.678;6.074;2023-09-19T06:32:34;13.27;;;2.03;;
17618;SDS011;8928;51.678;6.074;2023-09-19T06:35:22;11.07;;;1.93;;
17618;SDS011;8928;51.678;6.074;2023-09-19T06:38:11;16.30;;;2.30;;
17618;SDS011;8928;51.678;6.074;2023-09-19T06:40:58;21.77;;;2.00;;
17618;SDS011;8928;51.678;6.074;2023-09-19T06:43:46;9.33;;;1.80;;
17618;SDS011;8928;51.678;6.074;2023-09-19T06:46:33;16.67;;;2.10;;
17618;SDS011;8928;51.678;6.074;2023-09-19T06:49:21;12.80;;;1.90;;
17618;SDS011;8928;51.678;6.074;2023-09-19T06:52:09;14.03;;;2.20;;
17618;SDS011;8928;51.678;6.074;2023-09-19T06:54:56;15.70;;;2.50;;
17618;SDS011;8928;51.678;6.074;2023-09-19T06:57:43;13.47;;;1.80;;
17618;SDS011;8928;51.678;6.074;2023-09-19T07:00:30;13.40;;;2.10;;
17618;SDS011;8928;51.678;6.074;2023-09-19T07:03:21;13.87;;;2.00;;
17618;SDS011;8928;51.678;6.074;2023-09-19T07:06:11;10.80;;;2.03;;
17618;SDS011;8928;51.678;6.074;2023-09-19T07:08:59;13.70;;;2.50;;
17618;SDS011;8928;51.678;6.074;2023-09-19T07:11:46;10.37;;;1.90;;
17618;SDS011;8928;51.678;6.074;2023-09-19T07:14:36;14.30;;;2.07;;
17618;SDS011;8928;51.678;6.074;2023-09-19T07:17:23;17.93;;;2.33;;
17618;SDS011;8928;51.678;6.074;2023-09-19T07:20:10;19.70;;;2.50;;
17618;SDS011;8928;51.678;6.074;2023-09-19T07:23:01;13.90;;;1.87;;
17618;SDS011;8928;51.678;6.074;2023-09-19T07:25:50;17.37;;;2.03;;
17618;SDS011;8928;51.678;6.074;2023-09-19T07:28:37;15.17;;;2.20;;
17618;SDS011;8928;51.678;6.074;2023-09-19T07:31:24;16.33;;;2.40;;
17618;SDS011;8928;51.678;6.074;2023-09-19T07:34:12;15.40;;;2.43;;
17618;SDS011;8928;51.678;6.074;2023-09-19T07:37:00;16.53;;;2.73;;
17618;SDS011;8928;51.678;6.074;2023-09-19T07:39:48;13.37;;;2.10;;
17618;SDS011;8928;51.678;6.074;2023-09-19T07:42:37;15.43;;;2.40;;
17618;SDS011;8928;51.678;6.074;2023-09-19T07:45:26;14.10;;;1.90;;
17618;SDS011;8928;51.678;6.074;2023-09-19T07:48:13;17.90;;;2.33;;
17618;SDS011;8928;51.678;6.074;2023-09-19T07:51:03;17.10;;;2.07;;
17618;SDS011;8928;51.678;6.074;2023-09-19T07:53:51;11.70;;;2.10;;
17618;SDS011;8928;51.678;6.074;2023-09-19T07:56:40;20.50;;;2.60;;
17618;SDS011;8928;51.678;6.074;2023-09-19T07:59:28;13.90;;;2.20;;
17618;SDS011;8928;51.678;6.074;2023-09-19T08:02:15;16.73;;;2.30;;
17618;SDS011;8928;51.678;6.074;2023-09-19T08:05:04;12.63;;;1.93;;
17618;SDS011;8928;51.678;6.074;2023-09-19T08:07:55;11.73;;;1.93;;
17618;SDS011;8928;51.678;6.074;2023-09-19T08:10:43;10.97;;;1.90;;
17618;SDS011;8928;51.678;6.074;2023-09-19T08:13:34;11.97;;;2.20;;
17618;SDS011;8928;51.678;6.074;2023-09-19T08:16:22;12.70;;;2.00;;
17618;SDS011;8928;51.678;6.074;2023-09-19T08:19:10;10.53;;;2.00;;
17618;SDS011;8928;51.678;6.074;2023-09-19T08:21:57;12.07;;;1.87;;
17618;SDS011;8928;51.678;6.074;2023-09-19T08:24:44;11.37;;;1.90;;
17618;SDS011;8928;51.678;6.074;2023-09-19T08:27:33;12.20;;;2.03;;
17618;SDS011;8928;51.678;6.074;2023-09-19T08:30:21;11.33;;;1.80;;
17618;SDS011;8928;51.678;6.074;2023-09-19T08:33:11;10.83;;;1.70;;
17618;SDS011;8928;51.678;6.074;2023-09-19T08:36:00;12.43;;;2.53;;
17618;SDS011;8928;51.678;6.074;2023-09-19T08:38:49;14.50;;;2.13;;
17618;SDS011;8928;51.678;6.074;2023-09-19T08:41:36;13.93;;;2.23;;
17618;SDS011;8928;51.678;6.074;2023-09-19T08:44:24;14.93;;;2.07;;
17618;SDS011;8928;51.678;6.074;2023-09-19T08:47:11;16.53;;;2.07;;
17618;SDS011;8928;51.678;6.074;2023-09-19T08:50:04;10.43;;;2.00;;
17618;SDS011;8928;51.678;6.074;2023-09-19T08:53:00;14.17;;;2.00;;
17618;SDS011;8928;51.678;6.074;2023-09-19T08:55:48;13.30;;;1.90;;
17618;SDS011;8928;51.678;6.074;2023-09-19T08:58:41;10.43;;;2.00;;
17618;SDS011;8928;51.678;6.074;2023-09-19T09:01:33;17.93;;;1.97;;
17618;SDS011;8928;51.678;6.074;2023-09-19T09:04:21;11.60;;;1.80;;
17618;SDS011;8928;51.678;6.074;2023-09-19T09:07:11;12.43;;;2.20;;
17618;SDS011;8928;51.678;6.074;2023-09-19T09:09:59;15.03;;;2.30;;
17618;SDS011;8928;51.678;6.074;2023-09-19T09:12:46;18.60;;;2.00;;
17618;SDS011;8928;51.678;6.074;2023-09-19T09:15:34;10.47;;;2.00;;
17618;SDS011;8928;51.678;6.074;2023-09-19T09:18:22;11.95;;;1.67;;
17618;SDS011;8928;51.678;6.074;2023-09-19T09:21:09;19.60;;;2.00;;
17618;SDS011;8928;51.678;6.074;2023-09-19T09:23:58;20.63;;;2.30;;
17618;SDS011;8928;51.678;6.074;2023-09-19T09:26:45;16.63;;;1.98;;
17618;SDS011;8928;51.678;6.074;2023-09-19T09:29:41;16.30;;;2.00;;
17618;SDS011;8928;51.678;6.074;2023-09-19T09:32:30;20.10;;;2.00;;
17618;SDS011;8928;51.678;6.074;2023-09-19T09:35:20;11.73;;;1.70;;
17618;SDS011;8928;51.678;6.074;2023-09-19T09:38:07;10.25;;;2.10;;
17618;SDS011;8928;51.678;6.074;2023-09-19T09:40:56;18.15;;;2.15;;
17618;SDS011;8928;51.678;6.074;2023-09-19T09:43:51;7.45;;;1.70;;
17618;SDS011;8928;51.678;6.074;2023-09-19T09:46:41;12.80;;;2.00;;
17618;SDS011;8928;51.678;6.074;2023-09-19T09:49:55;13.77;;;2.05;;
17618;SDS011;8928;51.678;6.074;2023-09-19T09:52:52;10.35;;;1.98;;
17618;SDS011;8928;51.678;6.074;2023-09-19T09:58:49;14.63;;;2.40;;
17618;SDS011;8928;51.678;6.074;2023-09-19T10:01:46;13.10;;;2.05;;
17618;SDS011;8928;51.678;6.074;2023-09-19T10:04:34;9.95;;;1.67;;
17618;SDS011;8928;51.678;6.074;2023-09-19T10:07:30;15.75;;;2.28;;
17618;SDS011;8928;51.678;6.074;2023-09-19T10:10:30;12.55;;;1.83;;
17618;SDS011;8928;51.678;6.074;2023-09-19T10:13:26;15.55;;;1.98;;
17618;SDS011;8928;51.678;6.074;2023-09-19T10:16:16;11.52;;;1.70;;
17618;SDS011;8928;51.678;6.074;2023-09-19T10:19:05;12.52;;;2.20;;
17618;SDS011;8928;51.678;6.074;2023-09-19T10:21:54;11.45;;;1.98;;
17618;SDS011;8928;51.678;6.074;2023-09-19T10:24:43;10.23;;;2.05;;
17618;SDS011;8928;51.678;6.074;2023-09-19T10:27:32;11.05;;;1.85;;
17618;SDS011;8928;51.678;6.074;2023-09-19T10:30:24;14.38;;;1.85;;
17618;SDS011;8928;51.678;6.074;2023-09-19T10:33:16;11.52;;;2.00;;
17618;SDS011;8928;51.678;6.074;2023-09-19T10:36:05;9.13;;;1.60;;
17618;SDS011;8928;51.678;6.074;2023-09-19T10:38:55;10.65;;;1.67;;
17618;SDS011;8928;51.678;6.074;2023-09-19T10:41:50;17.55;;;1.70;;
17618;SDS011;8928;51.678;6.074;2023-09-19T10:44:44;9.82;;;2.00;;
17618;SDS011;8928;51.678;6.074;2023-09-19T10:47:36;11.95;;;1.92;;
17618;SDS011;8928;51.678;6.074;2023-09-19T10:50:23;12.10;;;2.00;;
17618;SDS011;8928;51.678;6.074;2023-09-19T10:53:11;10.38;;;2.03;;
17618;SDS011;8928;51.678;6.074;2023-09-19T10:56:01;15.63;;;2.05;;
17618;SDS011;8928;51.678;6.074;2023-09-19T10:59:04;8.07;;;1.70;;
17618;SDS011;8928;51.678;6.074;2023-09-19T11:01:53;11.48;;;1.90;;
17618;SDS011;8928;51.678;6.074;2023-09-19T11:04:43;12.57;;;2.00;;
17618;SDS011;8928;51.678;6.074;2023-09-19T11:07:33;12.43;;;1.73;;
17618;SDS011;8928;51.678;6.074;2023-09-19T11:10:46;12.07;;;1.90;;
17618;SDS011;8928;51.678;6.074;2023-09-19T11:13:36;5.55;;;1.58;;
17618;SDS011;8928;51.678;6.074;2023-09-19T11:16:23;8.07;;;1.83;;
17618;SDS011;8928;51.678;6.074;2023-09-19T11:19:10;7.72;;;1.67;;
17618;SDS011;8928;51.678;6.074;2023-09-19T11:21:57;10.15;;;2.03;;
17618;SDS011;8928;51.678;6.074;2023-09-19T11:24:45;9.30;;;1.65;;
17618;SDS011;8928;51.678;6.074;2023-09-19T11:27:32;11.68;;;1.63;;
17618;SDS011;8928;51.678;6.074;2023-09-19T11:30:26;10.30;;;1.80;;
17618;SDS011;8928;51.678;6.074;2023-09-19T11:33:16;10.45;;;1.90;;
17618;SDS011;8928;51.678;6.074;2023-09-19T11:36:06;6.97;;;1.20;;
17618;SDS011;8928;51.678;6.074;2023-09-19T11:38:58;10.32;;;1.63;;
17618;SDS011;8928;51.678;6.074;2023-09-19T11:41:55;10.80;;;1.85;;
17618;SDS011;8928;51.678;6.074;2023-09-19T11:44:42;11.65;;;1.75;;
17618;SDS011;8928;51.678;6.074;2023-09-19T11:47:29;11.50;;;1.80;;
17618;SDS011;8928;51.678;6.074;2023-09-19T11:50:20;10.18;;;1.88;;
17618;SDS011;8928;51.678;6.074;2023-09-19T11:53:09;11.50;;;1.80;;
17618;SDS011;8928;51.678;6.074;2023-09-19T11:55:57;6.95;;;1.50;;
17618;SDS011;8928;51.678;6.074;2023-09-19T11:58:47;6.97;;;1.60;;
17618;SDS011;8928;51.678;6.074;2023-09-19T12:01:42;8.57;;;1.70;;
17618;SDS011;8928;51.678;6.074;2023-09-19T12:04:40;5.38;;;1.40;;
17618;SDS011;8928;51.678;6.074;2023-09-19T12:07:29;10.70;;;1.50;;
17618;SDS011;8928;51.678;6.074;2023-09-19T12:10:16;7.13;;;1.50;;
17618;SDS011;8928;51.678;6.074;2023-09-19T12:13:06;7.18;;;1.45;;
17618;SDS011;8928;51.678;6.074;2023-09-19T12:15:56;5.30;;;1.13;;
17618;SDS011;8928;51.678;6.074;2023-09-19T12:18:45;15.88;;;1.60;;
17618;SDS011;8928;51.678;6.074;2023-09-19T12:21:33;9.13;;;1.63;;
17618;SDS011;8928;51.678;6.074;2023-09-19T12:24:21;8.90;;;1.50;;
17618;SDS011;8928;51.678;6.074;2023-09-19T12:27:12;12.52;;;1.45;;
17618;SDS011;8928;51.678;6.074;2023-09-19T12:29:59;9.25;;;1.48;;
17618;SDS011;8928;51.678;6.074;2023-09-19T12:32:47;8.93;;;1.33;;
17618;SDS011;8928;51.678;6.074;2023-09-19T12:35:35;6.90;;;1.40;;
17618;SDS011;8928;51.678;6.074;2023-09-19T12:38:24;8.93;;;1.55;;
17618;SDS011;8928;51.678;6.074;2023-09-19T12:41:13;8.25;;;1.00;;
17618;SDS011;8928;51.678;6.074;2023-09-19T12:44:00;8.40;;;1.45;;
17618;SDS011;8928;51.678;6.074;2023-09-19T12:46:54;5.22;;;1.20;;
17618;SDS011;8928;51.678;6.074;2023-09-19T12:53:00;7.43;;;1.08;;
17618;SDS011;8928;51.678;6.074;2023-09-19T12:55:50;3.72;;;0.85;;
17618;SDS011;8928;51.678;6.074;2023-09-19T12:58:48;5.38;;;1.10;;
17618;SDS011;8928;51.678;6.074;2023-09-19T13:01:35;6.93;;;1.10;;
17618;SDS011;8928;51.678;6.074;2023-09-19T13:04:28;4.93;;;0.82;;
17618;SDS011;8928;51.678;6.074;2023-09-19T13:10:30;4.80;;;0.90;;
17618;SDS011;8928;51.678;6.074;2023-09-19T13:13:23;6.53;;;1.10;;
17618;SDS011;8928;51.678;6.074;2023-09-19T13:16:14;6.57;;;0.85;;
17618;SDS011;8928;51.678;6.074;2023-09-19T13:19:05;7.25;;;0.90;;
17618;SDS011;8928;51.678;6.074;2023-09-19T13:21:52;7.68;;;1.00;;
17618;SDS011;8928;51.678;6.074;2023-09-19T13:24:42;4.60;;;0.90;;
17618;SDS011;8928;51.678;6.074;2023-09-19T13:27:29;5.13;;;1.00;;
17618;SDS011;8928;51.678;6.074;2023-09-19T13:30:16;6.30;;;1.08;;
17618;SDS011;8928;51.678;6.074;2023-09-19T13:33:04;8.93;;;1.05;;
17618;SDS011;8928;51.678;6.074;2023-09-19T13:35:52;5.85;;;0.80;;
17618;SDS011;8928;51.678;6.074;2023-09-19T13:38:40;3.78;;;0.73;;
17618;SDS011;8928;51.678;6.074;2023-09-19T13:41:29;3.50;;;0.80;;
17618;SDS011;8928;51.678;6.074;2023-09-19T13:44:17;4.07;;;0.88;;
17618;SDS011;8928;51.678;6.074;2023-09-19T13:47:05;4.60;;;0.70;;
17618;SDS011;8928;51.678;6.074;2023-09-19T13:49:55;5.78;;;0.73;;
17618;SDS011;8928;51.678;6.074;2023-09-19T13:52:42;5.85;;;0.80;;
17618;SDS011;8928;51.678;6.074;2023-09-19T13:55:29;5.78;;;0.80;;
17618;SDS011;8928;51.678;6.074;2023-09-19T13:58:17;4.88;;;0.85;;
17618;SDS011;8928;51.678;6.074;2023-09-19T14:01:04;5.07;;;0.90;;
17618;SDS011;8928;51.678;6.074;2023-09-19T14:03:57;3.58;;;0.60;;
17618;SDS011;8928;51.678;6.074;2023-09-19T14:06:44;5.45;;;0.98;;
17618;SDS011;8928;51.678;6.074;2023-09-19T14:09:31;6.65;;;0.80;;
17618;SDS011;8928;51.678;6.074;2023-09-19T14:12:19;8.90;;;1.00;;
17618;SDS011;8928;51.678;6.074;2023-09-19T14:15:08;7.68;;;1.00;;
17618;SDS011;8928;51.678;6.074;2023-09-19T14:17:56;6.85;;;1.00;;
17618;SDS011;8928;51.678;6.074;2023-09-19T14:20:44;5.38;;;0.80;;
17618;SDS011;8928;51.678;6.074;2023-09-19T14:23:34;4.10;;;0.70;;
17618;SDS011;8928;51.678;6.074;2023-09-19T14:26:22;5.45;;;0.60;;
17618;SDS011;8928;51.678;6.074;2023-09-19T14:29:09;2.60;;;0.70;;
17618;SDS011;8928;51.678;6.074;2023-09-19T14:31:58;3.20;;;0.70;;
17618;SDS011;8928;51.678;6.074;2023-09-19T14:34:45;4.25;;;0.70;;
17618;SDS011;8928;51.678;6.074;2023-09-19T14:37:32;8.07;;;0.90;;
17618;SDS011;8928;51.678;6.074;2023-09-19T14:40:19;7.22;;;0.80;;
17618;SDS011;8928;51.678;6.074;2023-09-19T14:43:07;7.13;;;0.60;;
17618;SDS011;8928;51.678;6.074;2023-09-19T14:45:55;5.80;;;0.95;;
17618;SDS011;8928;51.678;6.074;2023-09-19T14:48:43;4.40;;;0.70;;
17618;SDS011;8928;51.678;6.074;2023-09-19T14:51:32;6.65;;;0.85;;
17618;SDS011;8928;51.678;6.074;2023-09-19T14:54:21;5.57;;;0.88;;
17618;SDS011;8928;51.678;6.074;2023-09-19T14:57:09;3.55;;;0.90;;
17618;SDS011;8928;51.678;6.074;2023-09-19T14:59:56;5.25;;;0.63;;
17618;SDS011;8928;51.678;6.074;2023-09-19T15:02:43;3.38;;;0.77;;
17618;SDS011;8928;51.678;6.074;2023-09-19T15:05:32;7.40;;;0.77;;
17618;SDS011;8928;51.678;6.074;2023-09-19T15:08:19;3.75;;;0.70;;
17618;SDS011;8928;51.678;6.074;2023-09-19T15:11:06;5.15;;;0.80;;
17618;SDS011;8928;51.678;6.074;2023-09-19T15:13:53;2.78;;;0.63;;
17618;SDS011;8928;51.678;6.074;2023-09-19T15:16:41;7.70;;;0.90;;
17618;SDS011;8928;51.678;6.074;2023-09-19T15:19:29;5.97;;;0.65;;
17618;SDS011;8928;51.678;6.074;2023-09-19T15:22:17;3.20;;;0.65;;
17618;SDS011;8928;51.678;6.074;2023-09-19T15:25:05;5.38;;;0.73;;
17618;SDS011;8928;51.678;6.074;2023-09-19T15:27:52;2.65;;;0.80;;
17618;SDS011;8928;51.678;6.074;2023-09-19T15:30:39;5.25;;;0.70;;
17618;SDS011;8928;51.678;6.074;2023-09-19T15:33:26;4.90;;;0.85;;
17618;SDS011;8928;51.678;6.074;2023-09-19T15:36:14;5.20;;;1.00;;
17618;SDS011;8928;51.678;6.074;2023-09-19T15:39:05;7.03;;;0.88;;
17618;SDS011;8928;51.678;6.074;2023-09-19T15:41:56;3.25;;;0.75;;
17618;SDS011;8928;51.678;6.074;2023-09-19T15:44:43;6.95;;;0.75;;
17618;SDS011;8928;51.678;6.074;2023-09-19T15:47:32;9.13;;;0.90;;
17618;SDS011;8928;51.678;6.074;2023-09-19T15:50:19;4.18;;;0.90;;
17618;SDS011;8928;51.678;6.074;2023-09-19T15:53:07;5.85;;;1.00;;
17618;SDS011;8928;51.678;6.074;2023-09-19T15:55:56;6.32;;;0.80;;
17618;SDS011;8928;51.678;6.074;2023-09-19T15:58:43;3.90;;;0.82;;
17618;SDS011;8928;51.678;6.074;2023-09-19T16:01:31;8.70;;;0.93;;
17618;SDS011;8928;51.678;6.074;2023-09-19T16:04:18;8.85;;;0.90;;
17618;SDS011;8928;51.678;6.074;2023-09-19T16:07:05;5.65;;;1.10;;
17618;SDS011;8928;51.678;6.074;2023-09-19T16:09:53;5.63;;;0.90;;
17618;SDS011;8928;51.678;6.074;2023-09-19T16:12:42;4.88;;;0.90;;
17618;SDS011;8928;51.678;6.074;2023-09-19T16:15:29;5.30;;;0.90;;
17618;SDS011;8928;51.678;6.074;2023-09-19T16:18:16;4.13;;;0.88;;
17618;SDS011;8928;51.678;6.074;2023-09-19T16:21:03;5.47;;;0.93;;
17618;SDS011;8928;51.678;6.074;2023-09-19T16:23:50;7.30;;;1.10;;
17618;SDS011;8928;51.678;6.074;2023-09-19T16:26:39;4.50;;;1.13;;
17618;SDS011;8928;51.678;6.074;2023-09-19T16:29:27;6.53;;;1.15;;
17618;SDS011;8928;51.678;6.074;2023-09-19T16:32:14;5.93;;;0.90;;
17618;SDS011;8928;51.678;6.074;2023-09-19T16:35:01;7.50;;;1.30;;
17618;SDS011;8928;51.678;6.074;2023-09-19T16:37:49;7.10;;;1.65;;
17618;SDS011;8928;51.678;6.074;2023-09-19T16:40:36;2.95;;;1.00;;
17618;SDS011;8928;51.678;6.074;2023-09-19T16:43:23;6.00;;;1.00;;
17618;SDS011;8928;51.678;6.074;2023-09-19T16:46:12;5.00;;;1.00;;
17618;SDS011;8928;51.678;6.074;2023-09-19T16:49:01;4.63;;;1.10;;
17618;SDS011;8928;51.678;6.074;2023-09-19T16:51:49;7.15;;;0.95;;
17618;SDS011;8928;51.678;6.074;2023-09-19T16:54:36;6.72;;;1.00;;
17618;SDS011;8928;51.678;6.074;2023-09-19T16:57:24;4.25;;;0.93;;
17618;SDS011;8928;51.678;6.074;2023-09-19T17:00:11;5.10;;;1.20;;
17618;SDS011;8928;51.678;6.074;2023-09-19T17:03:04;7.53;;;1.13;;
17618;SDS011;8928;51.678;6.074;2023-09-19T17:05:52;4.00;;;0.98;;
17618;SDS011;8928;51.678;6.074;2023-09-19T17:08:43;2.88;;;0.80;;
17618;SDS011;8928;51.678;6.074;2023-09-19T17:11:30;4.55;;;1.08;;
17618;SDS011;8928;51.678;6.074;2023-09-19T17:14:19;7.03;;;1.13;;